createdAt,value
2018-12-19T00:00:25.745Z,1.40
2018-12-19T00:02:54.087Z,1.50
2018-12-19T00:05:22.443Z,1.30
2018-12-19T00:07:50.794Z,1.30
2018-12-19T00:10:19.237Z,1.30
2018-12-19T00:12:47.616Z,1.20
2018-12-19T00:15:16.023Z,1.20
2018-12-19T00:17:44.371Z,1.20
2018-12-19T00:20:12.764Z,1.10
2018-12-19T00:22:41.092Z,1.10
2018-12-19T00:25:09.704Z,1.10
2018-12-19T00:27:38.467Z,1.00
2018-12-19T00:30:07.680Z,1.00
2018-12-19T00:32:36.028Z,1.10
2018-12-19T00:35:05.530Z,1.20
2018-12-19T00:37:34.057Z,1.20
2018-12-19T00:40:02.451Z,1.20
2018-12-19T00:42:30.796Z,1.10
2018-12-19T00:44:59.158Z,1.20
2018-12-19T00:47:27.555Z,1.20
2018-12-19T00:49:55.991Z,1.20
2018-12-19T00:52:24.329Z,1.20
2018-12-19T00:54:52.756Z,1.30
2018-12-19T00:57:21.085Z,1.30
2018-12-19T00:59:49.427Z,1.20
2018-12-19T01:02:17.791Z,1.30
2018-12-19T01:04:48.239Z,1.30
2018-12-19T01:07:16.521Z,1.20
2018-12-19T01:09:44.876Z,1.30
2018-12-19T01:12:13.222Z,1.30
2018-12-19T01:14:41.628Z,1.40
2018-12-19T01:17:10.025Z,1.40
2018-12-19T01:19:38.363Z,1.50
2018-12-19T01:22:06.755Z,1.50
2018-12-19T01:24:35.127Z,1.40
2018-12-19T01:27:03.574Z,1.40
2018-12-19T01:29:31.939Z,1.50
2018-12-19T01:32:00.272Z,1.60
2018-12-19T01:34:28.662Z,1.70
2018-12-19T01:36:57.032Z,1.80
2018-12-19T01:39:25.392Z,2.00
2018-12-19T01:41:53.787Z,1.90
2018-12-19T01:44:22.209Z,1.80
2018-12-19T01:46:50.570Z,1.80
2018-12-19T01:49:18.935Z,2.00
2018-12-19T01:51:47.287Z,2.00
2018-12-19T01:54:15.617Z,1.80
2018-12-19T01:56:44.164Z,2.00
2018-12-19T01:59:12.484Z,2.00
2018-12-19T02:01:40.915Z,1.80
2018-12-19T02:04:09.347Z,1.70
2018-12-19T02:06:37.712Z,1.90
2018-12-19T02:09:07.796Z,2.00
2018-12-19T02:11:36.155Z,1.80
2018-12-19T02:14:04.599Z,1.80
2018-12-19T02:16:32.978Z,1.80
2018-12-19T02:19:01.310Z,1.80
2018-12-19T02:21:29.700Z,1.80
2018-12-19T02:23:58.052Z,1.90
2018-12-19T02:26:26.459Z,1.90
2018-12-19T02:28:54.903Z,1.70
2018-12-19T02:31:23.275Z,1.70
2018-12-19T02:33:52.239Z,1.80
2018-12-19T02:36:20.603Z,1.90
2018-12-19T02:38:48.946Z,1.80
2018-12-19T02:41:17.377Z,1.80
2018-12-19T02:43:45.732Z,1.80
2018-12-19T02:46:14.117Z,1.70
2018-12-19T02:48:42.455Z,1.80
2018-12-19T02:51:11.057Z,1.90
2018-12-19T02:53:39.429Z,1.90
2018-12-19T02:56:07.848Z,1.90
2018-12-19T02:58:36.200Z,1.90
2018-12-19T03:01:04.578Z,1.80
2018-12-19T03:03:32.908Z,1.80
2018-12-19T03:06:01.242Z,1.70
2018-12-19T03:08:29.920Z,1.50
2018-12-19T03:10:59.216Z,1.50
2018-12-19T03:13:27.963Z,1.50
2018-12-19T03:15:56.357Z,1.50
2018-12-19T03:18:24.676Z,1.70
2018-12-19T03:20:53.017Z,1.70
2018-12-19T03:23:21.436Z,1.60
2018-12-19T03:25:51.235Z,1.70
2018-12-19T03:28:19.590Z,1.70
2018-12-19T03:30:48.501Z,1.70
2018-12-19T03:33:17.074Z,1.80
2018-12-19T03:35:45.399Z,1.80
2018-12-19T03:38:17.996Z,1.70
2018-12-19T03:40:46.539Z,1.80
2018-12-19T03:43:14.904Z,1.80
2018-12-19T03:45:43.535Z,1.80
2018-12-19T03:48:16.084Z,1.70
2018-12-19T03:50:44.438Z,1.70
2018-12-19T03:53:12.961Z,1.70
2018-12-19T03:55:41.333Z,1.70
2018-12-19T03:58:09.691Z,1.70
2018-12-19T04:00:38.155Z,1.90
2018-12-19T04:03:06.483Z,2.00
2018-12-19T04:05:34.895Z,2.10
2018-12-19T04:08:03.228Z,2.00
2018-12-19T04:10:31.650Z,2.00
2018-12-19T04:13:00.109Z,2.00
2018-12-19T04:15:28.439Z,2.00
2018-12-19T04:17:56.814Z,2.00
2018-12-19T04:20:25.303Z,2.10
2018-12-19T04:22:53.643Z,2.00
2018-12-19T04:25:22.332Z,2.00
2018-12-19T04:27:50.738Z,2.00
2018-12-19T04:30:19.121Z,2.00
2018-12-19T04:32:47.751Z,1.90
2018-12-19T04:35:16.148Z,1.90
2018-12-19T04:37:44.661Z,1.90
2018-12-19T04:40:13.060Z,1.90
2018-12-19T04:42:41.383Z,1.80
2018-12-19T04:45:10.061Z,2.00
2018-12-19T04:47:38.402Z,2.00
2018-12-19T04:50:06.777Z,2.00
2018-12-19T04:52:35.131Z,2.00
2018-12-19T04:55:03.480Z,1.90
2018-12-19T04:57:31.816Z,1.80
2018-12-19T05:00:00.324Z,1.90
2018-12-19T05:02:28.661Z,1.90
2018-12-19T05:04:57.026Z,1.90
2018-12-19T05:07:25.539Z,1.90
2018-12-19T05:09:54.002Z,2.00
2018-12-19T05:12:22.313Z,2.10
2018-12-19T05:14:50.656Z,2.00
2018-12-19T05:17:18.999Z,2.00
2018-12-19T05:19:47.955Z,2.10
2018-12-19T05:22:16.459Z,2.00
2018-12-19T05:24:44.844Z,2.20
2018-12-19T05:27:13.169Z,2.20
2018-12-19T05:29:41.613Z,2.20
2018-12-19T05:32:09.978Z,2.00
2018-12-19T05:34:38.303Z,2.10
2018-12-19T05:37:06.704Z,2.20
2018-12-19T05:39:35.027Z,2.20
2018-12-19T05:42:03.444Z,2.20
2018-12-19T05:44:31.777Z,2.20
2018-12-19T05:47:00.414Z,2.30
2018-12-19T05:49:28.756Z,2.30
2018-12-19T05:51:57.098Z,2.20
2018-12-19T05:54:25.616Z,2.30
2018-12-19T05:56:54.032Z,2.30
2018-12-19T05:59:22.379Z,2.30
2018-12-19T06:01:50.811Z,2.30
2018-12-19T06:04:19.147Z,2.30
2018-12-19T06:06:47.809Z,2.30
2018-12-19T06:09:16.138Z,2.20
2018-12-19T06:11:44.460Z,2.40
2018-12-19T06:14:12.839Z,2.30
2018-12-19T06:16:41.225Z,2.20
2018-12-19T06:19:09.568Z,2.10
2018-12-19T06:21:38.093Z,2.20
2018-12-19T06:24:06.431Z,2.20
2018-12-19T06:26:34.848Z,2.30
2018-12-19T06:29:03.196Z,2.40
2018-12-19T06:31:31.552Z,2.50
2018-12-19T06:34:00.344Z,2.40
2018-12-19T06:36:28.819Z,2.40
2018-12-19T06:38:57.159Z,2.40
2018-12-19T06:41:25.558Z,2.20
2018-12-19T06:43:53.896Z,2.10
2018-12-19T06:46:22.274Z,2.20
2018-12-19T06:48:50.595Z,2.20
2018-12-19T06:51:19.012Z,2.20
2018-12-19T06:53:47.658Z,2.10
2018-12-19T06:56:16.016Z,2.10
2018-12-19T06:58:44.376Z,2.10
2018-12-19T07:01:12.711Z,2.10
2018-12-19T07:03:41.132Z,2.20
2018-12-19T07:06:09.467Z,2.10
2018-12-19T07:08:37.816Z,2.00
2018-12-19T07:11:06.362Z,1.90
2018-12-19T07:13:34.727Z,1.90
2018-12-19T07:16:03.055Z,2.00
2018-12-19T07:18:31.414Z,2.00
2018-12-19T07:21:00.191Z,2.00
2018-12-19T07:23:28.538Z,2.00
2018-12-19T07:25:56.868Z,2.10
2018-12-19T07:28:25.459Z,2.10
2018-12-19T07:30:53.985Z,2.10
2018-12-19T07:33:22.423Z,2.00
2018-12-19T07:35:50.780Z,2.00
2018-12-19T07:38:19.167Z,2.20
2018-12-19T07:40:47.504Z,2.20
2018-12-19T07:43:15.860Z,2.20
2018-12-19T07:45:44.184Z,2.30
2018-12-19T07:48:12.856Z,2.40
2018-12-19T07:50:41.179Z,2.40
2018-12-19T07:53:09.694Z,2.50
2018-12-19T07:55:39.725Z,2.40
2018-12-19T07:58:08.095Z,2.50
2018-12-19T08:00:36.456Z,2.50
2018-12-19T08:03:04.825Z,2.50
2018-12-19T08:05:33.352Z,2.60
2018-12-19T08:08:01.695Z,2.60
2018-12-19T08:10:30.306Z,2.70
2018-12-19T08:12:58.649Z,2.80
2018-12-19T08:15:26.985Z,2.90
2018-12-19T08:17:55.326Z,2.90
2018-12-19T08:20:23.816Z,2.80
2018-12-19T08:22:52.136Z,2.80
2018-12-19T08:25:20.482Z,2.90
2018-12-19T08:27:48.804Z,2.90
2018-12-19T08:30:17.339Z,2.90
2018-12-19T08:32:45.698Z,2.90
2018-12-19T08:35:14.007Z,2.80
2018-12-19T08:37:42.412Z,2.70
2018-12-19T08:40:10.743Z,2.70
2018-12-19T08:42:39.083Z,2.80
2018-12-19T08:45:07.797Z,2.80
2018-12-19T08:47:36.148Z,2.80
2018-12-19T08:50:05.566Z,3.00
2018-12-19T08:52:34.161Z,3.10
2018-12-19T08:55:02.502Z,3.20
2018-12-19T08:57:30.873Z,3.10
2018-12-19T08:59:59.213Z,3.00
2018-12-19T09:02:27.739Z,3.00
2018-12-19T09:04:56.068Z,3.00
2018-12-19T09:07:24.414Z,2.90
2018-12-19T09:09:52.866Z,2.70
2018-12-19T09:12:21.331Z,2.70
2018-12-19T09:14:49.680Z,2.70
2018-12-19T09:17:18.214Z,2.70
2018-12-19T09:19:48.059Z,2.70
2018-12-19T09:22:16.813Z,2.70
2018-12-19T09:24:45.203Z,2.80
2018-12-19T09:27:13.619Z,2.80
2018-12-19T09:29:42.003Z,2.90
2018-12-19T09:32:10.514Z,2.90
2018-12-19T09:34:38.905Z,2.80
2018-12-19T09:37:07.256Z,2.70
2018-12-19T09:39:35.629Z,2.70
2018-12-19T09:42:04.242Z,2.80
2018-12-19T09:44:32.721Z,2.80
2018-12-19T09:47:01.072Z,2.90
2018-12-19T09:49:29.530Z,3.00
2018-12-19T09:51:58.013Z,3.00
2018-12-19T09:54:26.628Z,2.90
2018-12-19T09:56:54.967Z,2.90
2018-12-19T09:59:23.351Z,3.00
2018-12-19T10:01:51.705Z,3.00
2018-12-19T10:04:20.064Z,3.00
2018-12-19T10:06:48.412Z,3.20
2018-12-19T10:09:17.312Z,3.20
2018-12-19T10:11:45.644Z,3.10
2018-12-19T10:14:13.984Z,3.20
2018-12-19T10:16:42.364Z,3.10
2018-12-19T10:19:10.756Z,3.20
2018-12-19T10:21:39.170Z,3.20
2018-12-19T10:24:07.499Z,3.30
2018-12-19T10:26:35.916Z,3.40
2018-12-19T10:29:04.259Z,3.50
2018-12-19T10:31:32.597Z,3.50
2018-12-19T10:34:00.928Z,3.50
2018-12-19T10:36:34.772Z,3.60
2018-12-19T10:39:03.651Z,3.70
2018-12-19T10:41:32.275Z,3.70
2018-12-19T10:44:00.719Z,3.60
2018-12-19T10:46:30.459Z,3.60
2018-12-19T10:48:58.819Z,3.70
2018-12-19T10:51:28.264Z,3.60
2018-12-19T10:53:56.591Z,3.70
2018-12-19T10:56:24.935Z,3.80
2018-12-19T10:58:53.247Z,3.70
2018-12-19T11:01:21.639Z,3.70
2018-12-19T11:03:49.981Z,3.80
2018-12-19T11:06:18.313Z,3.80
2018-12-19T11:08:46.677Z,4.00
2018-12-19T11:11:15.091Z,3.90
2018-12-19T11:13:43.425Z,4.00
2018-12-19T11:16:11.880Z,4.00
2018-12-19T11:18:40.238Z,4.00
2018-12-19T11:21:08.691Z,3.90
2018-12-19T11:23:37.250Z,3.90
2018-12-19T11:26:05.597Z,3.90
2018-12-19T11:28:33.960Z,3.90
2018-12-19T11:31:02.292Z,4.00
2018-12-19T11:33:30.695Z,3.90
2018-12-19T11:35:59.155Z,3.80
2018-12-19T11:38:27.552Z,3.90
2018-12-19T11:40:55.929Z,4.00
2018-12-19T11:43:24.249Z,4.10
2018-12-19T11:45:52.592Z,4.10
2018-12-19T11:48:21.104Z,4.10
2018-12-19T11:50:49.646Z,4.10
2018-12-19T11:53:18.140Z,4.10
2018-12-19T11:55:46.465Z,4.10
2018-12-19T11:58:15.011Z,4.10
2018-12-19T12:00:43.464Z,4.10
2018-12-19T12:03:11.803Z,4.10
2018-12-19T12:05:40.185Z,4.20
2018-12-19T12:08:08.530Z,4.20
2018-12-19T12:10:37.012Z,4.30
2018-12-19T12:13:05.495Z,4.40
2018-12-19T12:15:33.897Z,4.50
2018-12-19T12:18:02.501Z,4.50
2018-12-19T12:20:30.895Z,4.50
2018-12-19T12:22:59.244Z,4.50
2018-12-19T12:25:27.591Z,4.50
2018-12-19T12:27:56.064Z,4.50
2018-12-19T12:30:24.427Z,4.50
2018-12-19T12:32:52.805Z,4.50
2018-12-19T12:35:21.196Z,4.60
2018-12-19T12:37:49.515Z,4.60
2018-12-19T12:40:17.896Z,4.60
2018-12-19T12:42:46.249Z,4.60
2018-12-19T12:45:14.583Z,4.60
2018-12-19T12:47:43.088Z,4.60
2018-12-19T12:50:11.484Z,4.60
2018-12-19T12:52:39.819Z,4.60
2018-12-19T12:55:08.285Z,4.60
2018-12-19T12:57:36.650Z,4.60
2018-12-19T13:00:06.627Z,4.50
2018-12-19T13:02:34.991Z,4.50
2018-12-19T13:05:03.331Z,4.70
2018-12-19T13:07:31.796Z,4.60
2018-12-19T13:10:00.138Z,4.80
2018-12-19T13:12:28.455Z,4.90
2018-12-19T13:14:56.879Z,4.90
2018-12-19T13:17:25.195Z,4.90
2018-12-19T13:19:53.531Z,4.90
2018-12-19T13:22:22.479Z,5.10
2018-12-19T13:24:50.929Z,5.40
2018-12-19T13:27:19.288Z,5.50
2018-12-19T13:29:47.679Z,5.60
2018-12-19T13:32:16.347Z,5.70
2018-12-19T13:34:44.680Z,5.60
2018-12-19T13:37:13.389Z,5.30
2018-12-19T13:39:41.768Z,5.10
2018-12-19T13:42:10.129Z,4.90
2018-12-19T13:44:38.485Z,4.80
2018-12-19T13:47:06.844Z,4.80
2018-12-19T13:49:35.177Z,4.80
2018-12-19T13:52:03.603Z,4.80
2018-12-19T13:54:32.180Z,4.70
2018-12-19T13:57:00.642Z,4.60
2018-12-19T13:59:28.993Z,4.80
2018-12-19T14:01:57.320Z,4.90
2018-12-19T14:04:26.127Z,4.90
2018-12-19T14:06:54.584Z,4.90
2018-12-19T14:09:22.910Z,4.80
2018-12-19T14:11:51.375Z,4.80
2018-12-19T14:14:21.858Z,4.80
2018-12-19T14:16:50.223Z,4.90
2018-12-19T14:19:18.595Z,4.90
2018-12-19T14:21:46.959Z,4.90
2018-12-19T14:24:15.364Z,4.80
2018-12-19T14:26:43.833Z,4.90
2018-12-19T14:29:12.190Z,5.00
2018-12-19T14:31:40.663Z,5.10
2018-12-19T14:34:09.008Z,5.10
2018-12-19T14:36:37.344Z,5.10
2018-12-19T14:39:07.603Z,5.10
2018-12-19T14:41:35.964Z,5.10
2018-12-19T14:44:04.295Z,5.10
2018-12-19T14:46:32.670Z,5.20
2018-12-19T14:49:01.031Z,5.10
2018-12-19T14:51:29.437Z,5.00
2018-12-19T14:53:57.815Z,5.00
2018-12-19T14:56:26.148Z,5.00
2018-12-19T14:58:54.496Z,5.10
2018-12-19T15:01:22.878Z,5.10
2018-12-19T15:03:51.285Z,5.00
2018-12-19T15:06:19.608Z,5.00
2018-12-19T15:08:48.041Z,5.10
2018-12-19T15:11:16.387Z,5.10
2018-12-19T15:13:44.781Z,5.10
2018-12-19T15:16:15.216Z,5.20
2018-12-19T15:18:44.264Z,5.10
2018-12-19T15:21:12.601Z,5.20
2018-12-19T15:23:40.985Z,5.30
2018-12-19T15:26:09.846Z,5.20
2018-12-19T15:28:38.247Z,5.20
2018-12-19T15:31:06.632Z,5.10
2018-12-19T15:33:35.141Z,5.10
2018-12-19T15:36:03.820Z,5.10
2018-12-19T15:38:32.159Z,5.10
2018-12-19T15:41:02.378Z,5.10
2018-12-19T15:43:30.724Z,5.10
2018-12-19T15:45:59.072Z,5.30
2018-12-19T15:48:27.420Z,5.30
2018-12-19T15:50:55.913Z,5.30
2018-12-19T15:53:24.240Z,5.20
2018-12-19T15:55:52.700Z,5.40
2018-12-19T15:58:21.091Z,5.50
2018-12-19T16:00:49.403Z,5.60
2018-12-19T16:03:17.736Z,5.70
2018-12-19T16:05:46.205Z,5.80
2018-12-19T16:08:14.579Z,5.80
2018-12-19T16:10:42.944Z,5.90
2018-12-19T16:13:11.334Z,5.80
2018-12-19T16:15:39.697Z,5.80
2018-12-19T16:18:08.069Z,5.80
2018-12-19T16:20:36.617Z,5.90
2018-12-19T16:23:04.962Z,5.80
2018-12-19T16:25:33.325Z,5.80
2018-12-19T16:28:01.776Z,5.80
2018-12-19T16:30:30.112Z,5.80
2018-12-19T16:32:58.497Z,5.80
2018-12-19T16:35:26.862Z,5.80
2018-12-19T16:37:55.167Z,5.80
2018-12-19T16:40:23.652Z,5.80
2018-12-19T16:42:52.015Z,5.80
2018-12-19T16:45:21.335Z,5.80
2018-12-19T16:47:49.688Z,5.80
2018-12-19T16:50:18.108Z,5.80
2018-12-19T16:52:46.604Z,5.80
2018-12-19T16:55:15.060Z,5.80
2018-12-19T16:57:43.624Z,5.90
2018-12-19T17:00:12.036Z,5.90
2018-12-19T17:02:40.363Z,5.90
2018-12-19T17:05:08.725Z,5.90
2018-12-19T17:07:37.056Z,5.90
2018-12-19T17:10:05.948Z,5.90
2018-12-19T17:12:34.333Z,5.90
2018-12-19T17:15:02.709Z,5.90
2018-12-19T17:17:31.264Z,5.90
2018-12-19T17:19:59.604Z,5.90
2018-12-19T17:22:27.979Z,5.80
2018-12-19T17:24:56.296Z,5.70
2018-12-19T17:27:24.637Z,5.60
2018-12-19T17:29:53.234Z,5.60
2018-12-19T17:32:22.148Z,5.50
2018-12-19T17:34:50.579Z,5.60
2018-12-19T17:37:18.952Z,5.60
2018-12-19T17:39:47.261Z,5.70
2018-12-19T17:42:15.576Z,5.60
2018-12-19T17:44:43.976Z,5.50
2018-12-19T17:47:12.409Z,5.40
2018-12-19T17:49:40.737Z,5.40
2018-12-19T17:52:09.087Z,5.40
2018-12-19T17:54:37.532Z,5.30
2018-12-19T17:57:05.855Z,5.40
2018-12-19T17:59:34.235Z,5.40
2018-12-19T18:02:02.571Z,5.40
2018-12-19T18:04:30.863Z,5.40
2018-12-19T18:06:59.321Z,5.40
2018-12-19T18:09:27.803Z,5.50
2018-12-19T18:11:56.081Z,5.60
2018-12-19T18:14:24.432Z,5.60
2018-12-19T18:16:52.752Z,5.80
2018-12-19T18:19:23.469Z,5.80
2018-12-19T18:21:51.544Z,5.70
2018-12-19T18:24:19.851Z,5.80
2018-12-19T18:26:48.381Z,5.80
2018-12-19T18:29:16.756Z,5.70
2018-12-19T18:31:45.091Z,5.70
2018-12-19T18:34:14.111Z,5.70
2018-12-19T18:36:43.099Z,5.70
2018-12-19T18:39:11.481Z,5.70
2018-12-19T18:41:39.918Z,5.60
2018-12-19T18:44:08.275Z,5.70
2018-12-19T18:46:36.851Z,5.70
2018-12-19T18:49:05.142Z,5.70
2018-12-19T18:51:33.479Z,5.80
2018-12-19T18:54:01.855Z,5.70
2018-12-19T18:56:30.229Z,5.80
2018-12-19T18:58:58.509Z,6.00
2018-12-19T19:01:26.898Z,6.20
2018-12-19T19:03:55.297Z,6.40
2018-12-19T19:06:23.724Z,6.30
2018-12-19T19:08:52.295Z,6.40
2018-12-19T19:11:20.660Z,6.40
2018-12-19T19:13:49.197Z,6.40
2018-12-19T19:16:17.511Z,6.50
2018-12-19T19:18:45.856Z,6.50
2018-12-19T19:21:14.344Z,6.50
2018-12-19T19:23:42.687Z,6.40
2018-12-19T19:26:11.090Z,6.50
2018-12-19T19:28:39.355Z,6.50
2018-12-19T19:31:07.790Z,6.50
2018-12-19T19:33:36.387Z,6.50
2018-12-19T19:36:04.752Z,6.50
2018-12-19T19:38:33.058Z,6.50
2018-12-19T19:41:01.503Z,6.60
2018-12-19T19:43:29.840Z,6.50
2018-12-19T19:45:58.206Z,6.60
2018-12-19T19:48:26.572Z,6.60
2018-12-19T19:50:54.976Z,6.60
2018-12-19T19:53:23.645Z,6.60
2018-12-19T19:55:52.084Z,6.60
2018-12-19T19:58:20.457Z,6.70
2018-12-19T20:00:48.801Z,6.60
2018-12-19T20:03:18.050Z,6.70
2018-12-19T20:05:46.408Z,6.70
2018-12-19T20:08:14.728Z,6.70
2018-12-19T20:10:43.104Z,6.80
2018-12-19T20:13:12.779Z,6.80
2018-12-19T20:15:42.438Z,6.90
2018-12-19T20:18:12.468Z,6.90
2018-12-19T20:20:40.910Z,6.90
2018-12-19T20:23:09.209Z,6.80
2018-12-19T20:25:37.574Z,6.80
2018-12-19T20:28:05.881Z,6.80
2018-12-19T20:30:34.355Z,6.80
2018-12-19T20:33:02.783Z,6.80
2018-12-19T20:35:31.140Z,6.80
2018-12-19T20:37:59.453Z,6.70
2018-12-19T20:40:27.800Z,6.70
2018-12-19T20:42:56.353Z,6.70
2018-12-19T20:45:24.679Z,6.70
2018-12-19T20:47:53.020Z,6.70
2018-12-19T20:50:21.537Z,6.60
2018-12-19T20:52:49.896Z,6.60
2018-12-19T20:55:18.240Z,6.50
2018-12-19T20:57:46.600Z,6.50
2018-12-19T21:00:15.032Z,6.50
2018-12-19T21:02:43.419Z,6.40
2018-12-19T21:05:11.816Z,6.40
2018-12-19T21:07:40.255Z,6.40
2018-12-19T21:10:08.796Z,6.30
2018-12-19T21:12:37.231Z,6.30
2018-12-19T21:15:06.454Z,6.30
2018-12-19T21:17:40.112Z,6.30
2018-12-19T21:20:08.464Z,6.30
2018-12-19T21:22:36.896Z,6.20
2018-12-19T21:25:05.312Z,6.10
2018-12-19T21:27:33.663Z,6.10
2018-12-19T21:30:02.023Z,6.10
2018-12-19T21:32:30.317Z,6.10
2018-12-19T21:34:58.678Z,6.10
2018-12-19T21:37:27.132Z,6.10
2018-12-19T21:39:55.449Z,6.10
2018-12-19T21:42:24.206Z,6.10
2018-12-19T21:44:52.493Z,6.10
2018-12-19T21:47:21.585Z,6.10
2018-12-19T21:49:49.937Z,6.00
2018-12-19T21:52:18.432Z,6.10
2018-12-19T21:54:46.779Z,6.10
2018-12-19T21:57:15.213Z,6.10
2018-12-19T21:59:43.645Z,6.10
2018-12-19T22:02:12.056Z,6.10
2018-12-19T22:04:40.395Z,6.10
2018-12-19T22:07:09.223Z,6.10
2018-12-19T22:09:37.642Z,6.10
2018-12-19T22:12:07.021Z,6.20
2018-12-19T22:14:35.742Z,6.10
2018-12-19T22:17:09.622Z,6.10
2018-12-19T22:19:38.127Z,6.10
2018-12-19T22:22:06.533Z,6.10
2018-12-19T22:24:34.903Z,6.10
2018-12-19T22:27:03.360Z,6.10
2018-12-19T22:29:31.809Z,6.10
2018-12-19T22:32:00.203Z,6.20
2018-12-19T22:34:28.603Z,6.20
2018-12-19T22:36:57.024Z,6.10
2018-12-19T22:39:25.575Z,6.20
2018-12-19T22:41:54.046Z,6.20
2018-12-19T22:44:22.494Z,6.20
2018-12-19T22:46:51.133Z,6.10
2018-12-19T22:49:19.542Z,6.10
2018-12-19T22:51:47.951Z,6.10
2018-12-19T22:54:16.512Z,6.10
2018-12-19T22:56:44.964Z,6.10
2018-12-19T22:59:13.312Z,6.00
2018-12-19T23:01:47.040Z,6.00
2018-12-19T23:04:15.438Z,6.00
2018-12-19T23:06:43.877Z,6.10
2018-12-19T23:09:12.307Z,6.00
2018-12-19T23:11:40.802Z,6.00
2018-12-19T23:14:15.199Z,6.00
2018-12-19T23:16:39.520Z,6.00
2018-12-19T23:19:08.214Z,6.00
2018-12-19T23:21:36.605Z,6.00
2018-12-19T23:24:05.049Z,6.10
2018-12-19T23:26:33.444Z,6.10
2018-12-19T23:29:04.178Z,6.10
2018-12-19T23:31:32.893Z,6.10
2018-12-19T23:34:01.868Z,6.10
2018-12-19T23:36:30.257Z,6.00
2018-12-19T23:38:58.632Z,6.00
2018-12-19T23:41:27.307Z,6.00
2018-12-19T23:43:55.996Z,5.90
2018-12-19T23:46:24.515Z,5.90
2018-12-19T23:48:52.982Z,5.90
2018-12-19T23:51:21.541Z,6.10
2018-12-19T23:53:49.918Z,6.10
2018-12-19T23:56:18.638Z,6.10
2018-12-19T23:58:47.125Z,6.10
